createdAt,value
2022-11-04T00:02:44.983Z,8.70
2022-11-04T00:08:05.959Z,8.80
2022-11-04T00:13:08.631Z,8.80
2022-11-04T00:18:11.487Z,8.90
2022-11-04T00:23:32.596Z,8.90
2022-11-04T00:28:46.716Z,8.90
2022-11-04T00:33:50.730Z,8.90
2022-11-04T00:38:53.833Z,8.90
2022-11-04T00:44:02.142Z,8.90
2022-11-04T00:49:04.761Z,8.90
2022-11-04T00:54:07.491Z,8.80
2022-11-04T00:59:13.523Z,8.90
2022-11-04T01:04:17.190Z,8.90
2022-11-04T01:09:20.145Z,8.90
2022-11-04T01:14:23.455Z,8.90
2022-11-04T01:19:25.981Z,8.90
2022-11-04T01:24:28.806Z,8.90
2022-11-04T01:29:31.600Z,8.90
2022-11-04T01:34:36.828Z,8.90
2022-11-04T01:39:41.612Z,8.90
2022-11-04T01:45:14.659Z,8.90
2022-11-04T01:50:27.062Z,8.80
2022-11-04T01:55:33.954Z,8.70
2022-11-04T02:00:39.385Z,8.70
2022-11-04T02:05:45.151Z,8.70
2022-11-04T02:11:04.519Z,8.70
2022-11-04T02:16:13.849Z,8.80
2022-11-04T02:21:34.380Z,8.70
2022-11-04T02:26:36.904Z,8.80
2022-11-04T02:31:48.485Z,8.70
2022-11-04T02:37:12.848Z,8.70
2022-11-04T02:42:39.565Z,8.70
2022-11-04T02:47:46.187Z,8.70
2022-11-04T02:53:17.050Z,8.80
2022-11-04T02:58:26.405Z,8.80
2022-11-04T03:03:38.633Z,8.70
2022-11-04T03:08:48.639Z,8.80
2022-11-04T03:14:10.758Z,8.70
2022-11-04T03:19:35.180Z,8.80
2022-11-04T03:24:38.079Z,8.80
2022-11-04T03:29:56.231Z,8.80
2022-11-04T03:34:58.741Z,8.70
2022-11-04T03:40:02.878Z,8.70
2022-11-04T03:45:05.879Z,8.70
2022-11-04T03:50:08.426Z,8.70
2022-11-04T03:55:12.611Z,8.70
2022-11-04T04:00:20.853Z,8.70
2022-11-04T04:05:29.838Z,8.70
2022-11-04T04:11:02.675Z,8.70
2022-11-04T04:16:11.143Z,8.80
2022-11-04T04:21:17.178Z,8.80
2022-11-04T04:26:41.117Z,8.70
2022-11-04T04:31:50.850Z,8.80
2022-11-04T04:37:00.625Z,8.80
2022-11-04T04:42:25.137Z,8.80
2022-11-04T04:47:32.285Z,8.80
2022-11-04T04:52:41.447Z,8.80
2022-11-04T04:57:44.565Z,8.80
2022-11-04T05:02:48.848Z,8.80
2022-11-04T05:07:51.321Z,8.80
2022-11-04T05:13:12.595Z,8.80
2022-11-04T05:18:15.052Z,8.80
2022-11-04T05:23:17.725Z,8.80
2022-11-04T05:28:20.209Z,8.80
2022-11-04T05:33:22.840Z,8.80
2022-11-04T05:38:25.388Z,8.80
2022-11-04T05:43:28.005Z,8.80
2022-11-04T05:48:30.605Z,8.80
2022-11-04T05:53:33.059Z,8.80
2022-11-04T05:58:36.069Z,8.80
2022-11-04T06:03:38.799Z,8.80
2022-11-04T06:08:45.137Z,8.80
2022-11-04T06:13:48.533Z,8.90
2022-11-04T06:18:51.704Z,8.90
2022-11-04T06:23:59.253Z,9.00
2022-11-04T06:29:01.875Z,9.00
2022-11-04T06:34:04.509Z,9.00
2022-11-04T06:39:07.026Z,9.00
2022-11-04T06:44:09.539Z,9.00
2022-11-04T06:49:14.839Z,9.00
2022-11-04T06:54:18.385Z,9.00
2022-11-04T06:59:21.101Z,9.10
2022-11-04T07:04:23.565Z,9.10
2022-11-04T07:09:25.989Z,9.10
2022-11-04T07:14:28.732Z,9.10
2022-11-04T07:19:31.167Z,9.10
2022-11-04T07:24:34.272Z,9.20
2022-11-04T07:29:48.781Z,9.20
2022-11-04T07:34:51.448Z,9.30
2022-11-04T07:39:54.229Z,9.30
2022-11-04T07:44:57.054Z,9.30
2022-11-04T07:49:59.744Z,9.40
2022-11-04T07:55:02.369Z,9.50
2022-11-04T08:00:08.246Z,9.50
2022-11-04T08:05:14.700Z,9.60
2022-11-04T08:10:17.387Z,9.60
2022-11-04T08:15:20.023Z,9.70
2022-11-04T08:20:22.633Z,9.60
2022-11-04T08:25:25.436Z,9.70
2022-11-04T08:30:28.082Z,9.80
2022-11-04T08:35:31.381Z,9.90
2022-11-04T08:40:33.822Z,9.90
2022-11-04T08:45:45.301Z,9.90
2022-11-04T08:50:52.807Z,9.80
2022-11-04T08:55:55.604Z,9.80
2022-11-04T09:00:58.044Z,9.70
2022-11-04T09:06:01.195Z,9.70
2022-11-04T09:11:07.937Z,9.70
2022-11-04T09:16:13.236Z,9.70
2022-11-04T09:21:15.830Z,9.60
2022-11-04T09:26:18.849Z,9.70
2022-11-04T09:31:21.770Z,9.70
2022-11-04T09:36:24.449Z,9.80
2022-11-04T09:41:40.643Z,10.00
2022-11-04T09:46:45.759Z,10.20
2022-11-04T09:51:56.671Z,10.30
2022-11-04T09:57:01.765Z,10.40
2022-11-04T10:02:29.698Z,10.40
2022-11-04T10:07:32.330Z,10.50
2022-11-04T10:13:08.888Z,10.40
2022-11-04T10:18:34.639Z,10.40
2022-11-04T10:24:03.871Z,10.70
2022-11-04T10:29:13.510Z,11.00
2022-11-04T10:34:28.986Z,11.40
2022-11-04T10:39:37.454Z,11.40
2022-11-04T10:44:40.739Z,11.60
2022-11-04T10:50:22.019Z,11.60
2022-11-04T10:55:38.647Z,11.50
2022-11-04T11:00:41.934Z,11.20
2022-11-04T11:05:46.187Z,11.10
2022-11-04T11:10:56.094Z,11.20
2022-11-04T11:16:11.918Z,11.10
2022-11-04T11:21:21.446Z,11.20
2022-11-04T11:26:32.313Z,11.20
2022-11-04T11:31:40.278Z,11.20
2022-11-04T11:36:44.840Z,11.20
2022-11-04T11:42:01.297Z,11.30
2022-11-04T11:47:06.633Z,11.20
2022-11-04T11:52:30.020Z,11.10
2022-11-04T12:03:24.236Z,11.10
2022-11-04T12:14:19.189Z,11.30
2022-11-04T12:19:26.350Z,11.30
2022-11-04T12:24:58.803Z,11.30
2022-11-04T12:30:04.155Z,11.30
2022-11-04T12:35:28.058Z,11.40
2022-11-04T12:41:26.255Z,11.40
2022-11-04T12:46:54.959Z,11.50
2022-11-04T12:52:03.749Z,11.50
2022-11-04T12:57:42.463Z,11.60
2022-11-04T13:02:56.365Z,11.60
2022-11-04T13:08:14.205Z,11.60
2022-11-04T13:13:21.250Z,11.80
2022-11-04T13:18:28.484Z,11.90
2022-11-04T13:23:38.538Z,11.90
2022-11-04T13:28:43.901Z,11.90
2022-11-04T13:33:55.664Z,12.00
2022-11-04T13:39:06.944Z,12.00
2022-11-04T13:44:22.910Z,12.00
2022-11-04T13:49:32.726Z,11.90
2022-11-04T13:54:41.930Z,11.80
2022-11-04T14:00:15.716Z,11.70
2022-11-04T14:05:27.256Z,11.70
2022-11-04T14:10:48.512Z,11.70
2022-11-04T14:16:09.677Z,11.70
2022-11-04T14:21:19.308Z,11.70
2022-11-04T14:26:25.701Z,11.70
2022-11-04T14:31:37.288Z,11.60
2022-11-04T14:36:41.483Z,11.60
2022-11-04T14:41:52.736Z,11.70
2022-11-04T14:47:21.509Z,11.60
2022-11-04T14:52:45.125Z,11.60
2022-11-04T14:58:09.086Z,11.60
2022-11-04T15:08:49.183Z,11.60
2022-11-04T15:13:59.129Z,11.50
2022-11-04T15:19:01.645Z,11.50
2022-11-04T15:24:04.572Z,11.50
2022-11-04T15:29:12.658Z,11.50
2022-11-04T15:34:15.597Z,11.50
2022-11-04T15:39:22.616Z,11.60
2022-11-04T15:44:31.464Z,11.50
2022-11-04T15:49:36.853Z,11.50
2022-11-04T15:54:52.669Z,11.60
2022-11-04T16:00:00.151Z,11.50
2022-11-04T16:05:10.082Z,11.40
2022-11-04T16:10:31.442Z,11.40
2022-11-04T16:15:39.879Z,11.50
2022-11-04T16:20:46.349Z,11.50
2022-11-04T16:26:07.031Z,11.50
2022-11-04T16:31:27.739Z,11.40
2022-11-04T16:36:35.389Z,11.40
2022-11-04T16:41:39.527Z,11.40
2022-11-04T16:46:42.241Z,11.30
2022-11-04T16:51:45.692Z,11.30
2022-11-04T16:56:48.528Z,11.30
2022-11-04T17:01:51.360Z,11.30
2022-11-04T17:06:54.082Z,11.30
2022-11-04T17:11:56.568Z,11.20
2022-11-04T17:16:59.161Z,11.10
2022-11-04T17:22:04.282Z,11.00
2022-11-04T17:27:06.744Z,11.00
2022-11-04T17:32:09.969Z,10.90
2022-11-04T17:37:13.540Z,10.80
2022-11-04T17:42:34.634Z,10.80
2022-11-04T17:47:38.196Z,10.80
2022-11-04T17:52:42.266Z,10.80
2022-11-04T17:57:44.766Z,10.80
2022-11-04T18:02:47.514Z,10.80
2022-11-04T18:07:50.073Z,10.70
2022-11-04T18:12:52.930Z,10.70
2022-11-04T18:17:55.405Z,10.80
2022-11-04T18:23:00.276Z,10.40
2022-11-04T18:28:02.714Z,10.20
2022-11-04T18:33:05.651Z,10.20
2022-11-04T18:38:08.495Z,10.50
2022-11-04T18:43:11.135Z,10.40
2022-11-04T18:48:14.153Z,10.40
2022-11-04T18:53:22.843Z,10.40
2022-11-04T18:58:32.372Z,10.40
2022-11-04T19:03:35.669Z,10.40
2022-11-04T19:08:42.376Z,10.40
2022-11-04T19:14:01.908Z,10.40
2022-11-04T19:19:09.518Z,10.00
2022-11-04T19:24:12.713Z,9.80
2022-11-04T19:29:15.417Z,9.80
2022-11-04T19:34:18.357Z,9.90
2022-11-04T19:39:21.020Z,9.90
2022-11-04T19:44:23.811Z,10.00
2022-11-04T19:49:31.126Z,9.90
2022-11-04T19:54:33.817Z,9.80
2022-11-04T19:59:36.304Z,9.80
2022-11-04T20:04:38.931Z,9.80
2022-11-04T20:09:41.563Z,10.10
2022-11-04T20:14:44.160Z,10.20
2022-11-04T20:19:46.612Z,10.30
2022-11-04T20:24:49.556Z,10.30
2022-11-04T20:29:52.926Z,10.10
2022-11-04T20:34:55.539Z,9.70
2022-11-04T20:39:58.122Z,9.50
2022-11-04T20:45:00.754Z,9.30
2022-11-04T20:50:03.984Z,9.30
2022-11-04T20:55:07.621Z,9.40
2022-11-04T21:00:10.677Z,9.30
2022-11-04T21:05:13.341Z,9.20
2022-11-04T21:10:18.100Z,9.40
2022-11-04T21:15:39.196Z,9.70
2022-11-04T21:20:43.128Z,9.70
2022-11-04T21:25:52.251Z,9.70
2022-11-04T21:30:55.373Z,9.70
2022-11-04T21:36:03.454Z,9.70
2022-11-04T21:41:14.030Z,9.70
2022-11-04T21:46:17.188Z,9.70
2022-11-04T21:51:22.501Z,9.70
2022-11-04T21:56:27.770Z,9.70
2022-11-04T22:01:31.848Z,9.70
2022-11-04T22:06:35.718Z,9.60
2022-11-04T22:11:39.699Z,9.50
2022-11-04T22:16:42.752Z,9.50
2022-11-04T22:21:46.713Z,9.50
2022-11-04T22:26:49.463Z,9.30
2022-11-04T22:31:51.979Z,9.20
2022-11-04T22:36:54.551Z,9.20
2022-11-04T22:41:57.075Z,9.20
2022-11-04T22:46:59.597Z,9.30
2022-11-04T22:52:02.165Z,9.30
2022-11-04T22:57:04.825Z,9.30
2022-11-04T23:02:07.439Z,9.40
2022-11-04T23:07:10.021Z,9.40
2022-11-04T23:12:31.353Z,9.40
2022-11-04T23:17:52.234Z,9.40
2022-11-04T23:23:13.202Z,9.40
2022-11-04T23:28:34.827Z,9.40
2022-11-04T23:33:55.654Z,9.40
2022-11-04T23:38:58.222Z,9.40
2022-11-04T23:44:00.694Z,9.40
2022-11-04T23:49:21.554Z,9.40
2022-11-04T23:54:43.127Z,9.50
